Time;durP1;ratioP1;P1;durP2;ratioP2;P2;SDS_P1;SDS_P2;PMS_P1;PMS_P2;Temp;Humidity;BMP_temperature;BMP_pressure;BME280_temperature;BME280_humidity;BME280_pressure;Samples;Min_cycle;Max_cycle;Signal;HPM_P1;HPM_P2
2022/11/06 00:00:40;;;;;;;5.80;2.87;;;21.60;94.50;;;;;;5014475;28;20455;-39
2022/11/06 00:03:08;;;;;;;7.43;3.00;;;21.40;94.70;;;;;;5021057;28;20803;-39
2022/11/06 00:08:32;;;;;;;10.43;2.70;;;21.50;94.70;;;;;;5019534;28;20455;-40
2022/11/06 00:10:59;;;;;;;8.23;2.35;;;21.40;95.00;;;;;;5012709;28;20478;-40
2022/11/06 00:13:26;;;;;;;8.52;2.65;;;21.40;94.80;;;;;;5033003;28;20204;-40
2022/11/06 00:15:53;;;;;;;9.10;2.57;;;21.50;94.60;;;;;;5021784;28;20220;-40
2022/11/06 00:18:20;;;;;;;8.25;2.72;;;21.60;94.60;;;;;;5017295;28;20975;-40
2022/11/06 00:20:48;;;;;;;2.77;2.20;;;21.50;94.50;;;;;;5023487;28;20242;-40
2022/11/06 00:23:15;;;;;;;5.40;2.55;;;21.60;94.50;;;;;;5020036;28;20966;-40
2022/11/06 00:25:42;;;;;;;8.13;3.17;;;21.60;94.40;;;;;;5024871;28;20199;-40
2022/11/06 00:28:08;;;;;;;4.40;2.60;;;21.60;94.40;;;;;;5011912;28;20199;-41
2022/11/06 00:30:35;;;;;;;3.90;2.03;;;21.50;94.40;;;;;;5014775;28;20196;-40
2022/11/06 00:33:02;;;;;;;4.23;2.70;;;21.50;94.40;;;;;;5015418;28;20643;-40
2022/11/06 00:35:29;;;;;;;10.90;3.13;;;21.50;94.40;;;;;;5013980;28;20482;-41
2022/11/06 00:37:57;;;;;;;4.05;2.60;;;21.50;94.50;;;;;;5014345;28;20211;-40
2022/11/06 00:40:23;;;;;;;5.10;1.98;;;21.50;94.50;;;;;;5011489;28;20200;-41
2022/11/06 00:42:55;;;;;;;5.07;2.20;;;21.50;94.60;;;;;;5019406;28;20216;-40
2022/11/06 00:45:23;;;;;;;8.50;2.10;;;21.40;94.60;;;;;;5020320;28;20188;-40
2022/11/06 00:47:50;;;;;;;5.93;2.73;;;21.40;94.60;;;;;;5014115;28;20459;-38
2022/11/06 00:50:17;;;;;;;4.88;2.28;;;21.40;94.70;;;;;;5017849;28;21202;-40
2022/11/06 00:52:44;;;;;;;4.50;2.72;;;21.40;94.70;;;;;;5016523;28;20200;-40
2022/11/06 00:55:12;;;;;;;4.63;3.00;;;21.40;94.80;;;;;;5017763;28;20201;-40
2022/11/06 00:57:39;;;;;;;2.90;1.98;;;21.40;94.80;;;;;;5019495;28;20219;-40
2022/11/06 01:00:07;;;;;;;3.33;2.08;;;21.30;94.90;;;;;;5016294;28;20558;-41
2022/11/06 01:02:33;;;;;;;5.35;2.50;;;21.30;94.90;;;;;;5019135;28;20773;-40
2022/11/06 01:05:01;;;;;;;2.90;2.17;;;21.30;94.90;;;;;;5019934;28;20215;-40
2022/11/06 01:07:28;;;;;;;4.15;2.30;;;21.20;95.00;;;;;;5015247;28;20892;-42
2022/11/06 01:09:54;;;;;;;5.43;2.20;;;21.20;95.00;;;;;;5018226;28;20195;-40
2022/11/06 01:12:22;;;;;;;4.40;1.77;;;21.20;95.10;;;;;;5017652;28;20214;-40
2022/11/06 01:14:49;;;;;;;3.13;2.10;;;21.20;95.20;;;;;;5029064;28;20192;-41
2022/11/06 01:17:16;;;;;;;4.60;2.10;;;21.10;95.20;;;;;;5014761;28;20255;-40
2022/11/06 01:19:43;;;;;;;4.07;2.10;;;21.10;95.30;;;;;;5014501;28;20536;-40
2022/11/06 01:22:09;;;;;;;4.50;2.60;;;21.10;95.30;;;;;;5012192;28;20901;-40
2022/11/06 01:24:36;;;;;;;4.30;2.15;;;21.10;95.40;;;;;;5021911;28;20210;-40
2022/11/06 01:27:03;;;;;;;4.13;1.88;;;21.10;95.50;;;;;;5010398;28;20275;-39
2022/11/06 01:29:31;;;;;;;4.40;2.33;;;21.10;95.50;;;;;;5015415;28;20207;-40
2022/11/06 01:31:58;;;;;;;2.53;1.88;;;21.00;95.60;;;;;;5010972;28;20193;-41
2022/11/06 01:34:25;;;;;;;4.40;2.38;;;21.00;95.70;;;;;;5019339;28;20192;-41
2022/11/06 01:36:52;;;;;;;4.00;2.42;;;20.90;96.00;;;;;;5010523;28;20217;-40
2022/11/06 01:39:18;;;;;;;5.30;2.22;;;20.80;96.60;;;;;;5011830;28;20204;-40
2022/11/06 01:41:47;;;;;;;2.63;1.75;;;20.70;96.70;;;;;;5020577;28;20202;-40
2022/11/06 01:44:51;;;;;;;5.45;2.85;;;20.80;96.80;;;;;;5010659;28;20660;-41
2022/11/06 01:47:24;;;;;;;2.38;1.75;;;20.70;96.90;;;;;;5019656;28;20203;-40
2022/11/06 01:49:54;;;;;;;4.95;2.28;;;20.70;97.00;;;;;;5014384;28;20216;-41
2022/11/06 01:52:23;;;;;;;4.18;2.20;;;20.70;97.30;;;;;;5020779;28;20204;-40
2022/11/06 01:54:54;;;;;;;4.18;2.35;;;20.70;97.00;;;;;;5019490;28;20563;-41
2022/11/06 01:57:22;;;;;;;3.95;2.28;;;20.70;97.00;;;;;;5022563;28;20215;-40
2022/11/06 01:59:51;;;;;;;6.30;2.42;;;20.70;97.00;;;;;;5028021;28;20191;-41
2022/11/06 02:02:18;;;;;;;3.47;2.10;;;20.70;97.00;;;;;;5010830;28;20200;-41
2022/11/06 02:04:48;;;;;;;2.30;1.60;;;20.70;97.00;;;;;;5025616;28;20191;-39
2022/11/06 02:07:17;;;;;;;3.78;1.70;;;20.70;97.10;;;;;;5010610;28;20208;-41
2022/11/06 02:09:43;;;;;;;3.20;2.30;;;20.70;97.10;;;;;;5010543;28;20200;-40
2022/11/06 02:12:18;;;;;;;2.33;1.73;;;20.60;97.00;;;;;;5014589;28;20663;-39
2022/11/06 02:14:56;;;;;;;4.03;1.98;;;20.60;97.10;;;;;;5025044;28;20416;-42
2022/11/06 02:17:36;;;;;;;3.28;2.30;;;20.60;97.20;;;;;;5014484;28;20228;-42
2022/11/06 02:20:11;;;;;;;3.97;1.95;;;20.60;97.20;;;;;;5013411;28;20200;-42
2022/11/06 02:23:02;;;;;;;5.57;2.60;;;20.60;97.30;;;;;;5014562;28;20198;-41
2022/11/06 02:25:41;;;;;;;4.07;1.90;;;20.60;97.30;;;;;;5015175;28;20211;-42
2022/11/06 02:28:17;;;;;;;3.50;2.00;;;20.50;97.30;;;;;;5014978;28;20196;-41
2022/11/06 02:30:47;;;;;;;4.25;1.80;;;20.50;97.40;;;;;;5019930;28;20206;-38
2022/11/06 02:33:17;;;;;;;2.97;1.70;;;20.50;97.40;;;;;;5018577;28;20192;-38
2022/11/06 02:35:47;;;;;;;5.65;2.20;;;20.50;97.50;;;;;;5012531;28;20193;-41
2022/11/06 02:38:18;;;;;;;2.17;1.90;;;20.50;97.50;;;;;;5029505;28;20200;-41
2022/11/06 02:40:49;;;;;;;3.13;1.70;;;20.40;97.60;;;;;;5022167;28;20231;-39
2022/11/06 02:43:19;;;;;;;3.55;1.75;;;20.50;97.70;;;;;;5022480;28;20229;-40
2022/11/06 02:45:53;;;;;;;2.70;1.70;;;20.40;97.70;;;;;;5018643;28;20200;-40
2022/11/06 02:48:24;;;;;;;3.20;1.70;;;20.40;97.70;;;;;;5016140;28;20204;-39
2022/11/06 02:50:54;;;;;;;2.70;1.83;;;20.40;98.10;;;;;;5021898;28;20192;-40
2022/11/06 02:53:25;;;;;;;4.22;2.00;;;20.40;97.90;;;;;;5013541;28;20683;-39
2022/11/06 02:55:56;;;;;;;2.15;1.95;;;20.40;98.00;;;;;;5015780;28;20196;-40
2022/11/06 02:58:29;;;;;;;2.28;1.95;;;20.40;98.00;;;;;;5016512;28;20207;-40
2022/11/06 03:01:02;;;;;;;2.20;2.00;;;20.30;98.00;;;;;;5019190;28;20292;-39
2022/11/06 03:03:32;;;;;;;5.20;1.80;;;20.30;98.10;;;;;;5023525;28;20199;-39
2022/11/06 03:06:04;;;;;;;2.47;2.05;;;20.30;98.20;;;;;;5020247;28;20655;-40
2022/11/06 03:08:35;;;;;;;2.10;1.88;;;20.20;98.20;;;;;;5018495;28;20212;-39
2022/11/06 03:11:11;;;;;;;1.65;1.42;;;20.20;98.70;;;;;;5013532;28;20200;-39
2022/11/06 03:13:48;;;;;;;2.67;1.50;;;20.10;98.90;;;;;;5020305;28;20203;-40
2022/11/06 03:16:28;;;;;;;4.00;2.22;;;20.10;99.10;;;;;;5014391;28;20227;-40
2022/11/06 03:19:02;;;;;;;2.28;1.60;;;20.10;99.20;;;;;;5013285;28;20287;-40
2022/11/06 03:21:34;;;;;;;2.20;1.48;;;20.10;99.20;;;;;;5015597;28;20201;-40
2022/11/06 03:24:07;;;;;;;1.58;1.48;;;20.00;99.30;;;;;;5017532;28;20193;-39
2022/11/06 03:26:38;;;;;;;4.13;2.05;;;20.00;99.30;;;;;;5012769;28;20200;-39
2022/11/06 03:29:11;;;;;;;2.25;2.05;;;20.00;99.40;;;;;;5018572;28;20559;-40
2022/11/06 03:31:41;;;;;;;2.92;1.58;;;20.00;99.40;;;;;;5014778;28;20201;-40
2022/11/06 03:34:14;;;;;;;2.30;1.88;;;20.00;99.40;;;;;;5019289;28;20192;-39
2022/11/06 03:36:44;;;;;;;3.17;1.65;;;20.00;99.40;;;;;;5017646;28;20231;-40
2022/11/06 03:39:16;;;;;;;2.20;1.48;;;20.00;99.40;;;;;;5014334;28;20209;-39
2022/11/06 03:41:48;;;;;;;3.10;1.85;;;20.00;99.50;;;;;;5028408;28;20203;-40
2022/11/06 03:44:20;;;;;;;2.10;1.45;;;20.00;99.50;;;;;;5022441;28;20199;-40
2022/11/06 03:46:50;;;;;;;2.75;1.95;;;20.00;99.60;;;;;;5020690;28;20203;-41
2022/11/06 03:49:22;;;;;;;1.75;1.30;;;20.00;99.60;;;;;;5012637;28;20665;-40
2022/11/06 03:51:56;;;;;;;1.55;1.45;;;20.00;99.70;;;;;;5018420;28;20200;-40
2022/11/06 03:54:26;;;;;;;2.47;1.70;;;20.00;99.70;;;;;;5023981;28;20201;-39
2022/11/06 03:56:59;;;;;;;3.47;2.05;;;19.90;99.70;;;;;;5028315;28;20212;-40
2022/11/06 03:59:32;;;;;;;2.63;1.50;;;20.00;99.80;;;;;;5024849;28;20239;-41
2022/11/06 04:02:01;;;;;;;1.70;1.48;;;19.90;99.80;;;;;;5016875;28;20200;-40
2022/11/06 04:04:32;;;;;;;1.90;1.52;;;19.90;99.90;;;;;;5016843;28;20200;-39
2022/11/06 04:07:02;;;;;;;2.03;1.60;;;19.90;99.90;;;;;;5020304;28;20599;-39
2022/11/06 04:15:18;;;;;;;2.63;1.40;;;19.80;99.90;;;;;;5015932;28;20674;-39
2022/11/06 04:17:44;;;;;;;2.17;1.65;;;19.80;99.90;;;;;;5011825;28;20223;-39
2022/11/06 04:21:20;;;;;;;3.65;1.63;;;19.80;99.90;;;;;;5011769;28;20200;-40
2022/11/06 04:23:12;;;;;;;1.70;1.60;;;19.80;99.90;;;;;;5022829;28;20232;-40
2022/11/06 04:28:42;;;;;;;3.10;1.77;;;19.80;99.90;;;;;;5012809;28;20255;-40
2022/11/06 04:31:13;;;;;;;1.85;1.30;;;19.70;99.90;;;;;;5012533;28;20211;-39
2022/11/06 04:33:49;;;;;;;1.88;1.50;;;19.70;99.90;;;;;;5016647;28;20196;-39
2022/11/06 04:36:22;;;;;;;1.60;1.50;;;19.70;99.90;;;;;;5020154;28;20682;-38
2022/11/06 04:38:59;;;;;;;3.45;1.65;;;19.70;99.90;;;;;;5013466;28;20211;-39
2022/11/06 04:41:34;;;;;;;2.05;1.60;;;19.70;99.90;;;;;;5019474;28;20208;-41
2022/11/06 04:44:04;;;;;;;1.48;1.35;;;19.70;99.90;;;;;;5019258;28;20242;-38
2022/11/06 04:46:36;;;;;;;1.75;1.55;;;20.00;99.90;;;;;;5011426;28;20248;-40
2022/11/06 04:49:06;;;;;;;2.88;1.52;;;20.20;99.90;;;;;;5012365;28;20263;-40
2022/11/06 04:51:36;;;;;;;2.78;1.55;;;20.40;99.80;;;;;;5021501;28;20200;-38
2022/11/06 04:54:05;;;;;;;2.03;1.30;;;20.60;99.50;;;;;;5015526;28;20198;-38
2022/11/06 04:56:34;;;;;;;2.03;1.83;;;20.60;99.30;;;;;;5016030;28;20196;-39
2022/11/06 04:59:01;;;;;;;1.60;1.30;;;20.70;98.90;;;;;;5015826;28;20665;-37
2022/11/06 05:01:28;;;;;;;1.47;1.13;;;20.80;98.80;;;;;;5016218;28;20474;-40
2022/11/06 05:03:56;;;;;;;1.63;1.23;;;20.90;98.70;;;;;;5017357;28;20553;-40
2022/11/06 05:06:23;;;;;;;2.03;1.20;;;21.00;98.40;;;;;;5015222;28;20473;-40
2022/11/06 05:08:49;;;;;;;1.40;1.30;;;21.00;98.20;;;;;;5013972;28;20199;-39
2022/11/06 05:11:16;;;;;;;3.70;1.30;;;21.00;98.00;;;;;;5018291;28;20463;-39
2022/11/06 05:13:43;;;;;;;2.67;1.70;;;21.00;98.10;;;;;;5022220;28;20454;-39
2022/11/06 05:16:10;;;;;;;2.40;1.63;;;20.90;98.10;;;;;;5014782;28;20467;-40
2022/11/06 05:18:36;;;;;;;2.83;1.67;;;20.90;98.20;;;;;;5018774;28;20482;-40
2022/11/06 05:23:49;;;;;;;2.80;1.17;;;20.80;98.30;;;;;;5021164;28;20497;-40
2022/11/06 05:26:16;;;;;;;2.83;1.30;;;20.80;98.40;;;;;;5017187;28;20470;-39
2022/11/06 05:28:43;;;;;;;1.60;1.50;;;20.80;98.30;;;;;;5013171;28;20974;-40
2022/11/06 05:31:09;;;;;;;1.40;1.00;;;20.80;98.40;;;;;;5013523;28;20463;-40
2022/11/06 05:33:36;;;;;;;1.53;1.20;;;20.80;98.40;;;;;;5013669;28;20463;-39
2022/11/06 05:36:05;;;;;;;1.90;1.27;;;21.00;98.30;;;;;;5012093;28;20463;-41
2022/11/06 05:38:33;;;;;;;1.37;1.17;;;21.30;97.80;;;;;;5017821;28;20824;-40
2022/11/06 05:41:00;;;;;;;2.40;1.77;;;21.40;97.30;;;;;;5023862;28;20987;-40
2022/11/06 05:43:27;;;;;;;2.07;1.57;;;21.40;97.10;;;;;;5022523;28;20900;-40
2022/11/06 05:45:53;;;;;;;1.40;0.97;;;21.40;97.10;;;;;;5018480;28;20463;-40
2022/11/06 05:48:20;;;;;;;1.53;1.30;;;21.50;97.00;;;;;;5020913;28;20474;-40
2022/11/06 05:50:47;;;;;;;2.43;1.27;;;21.60;96.70;;;;;;5017184;28;21103;-40
2022/11/06 05:53:15;;;;;;;1.87;1.37;;;21.70;96.40;;;;;;5019175;28;20470;-40
2022/11/06 05:55:42;;;;;;;2.10;1.90;;;21.70;96.40;;;;;;5017878;28;20455;-40
2022/11/06 05:58:09;;;;;;;2.13;1.30;;;21.70;96.30;;;;;;5014631;28;20489;-40
2022/11/06 06:00:35;;;;;;;1.40;1.20;;;21.60;96.30;;;;;;5016440;28;20977;-40
2022/11/06 06:03:02;;;;;;;1.40;1.30;;;21.60;96.40;;;;;;5018613;28;20481;-39
2022/11/06 06:05:29;;;;;;;1.40;1.10;;;21.50;96.40;;;;;;5018234;28;20822;-40
2022/11/06 06:07:56;;;;;;;1.63;1.23;;;21.50;96.40;;;;;;5034541;28;20453;-45
2022/11/06 06:10:24;;;;;;;1.17;0.80;;;21.50;96.30;;;;;;5022831;28;20451;-40
2022/11/06 06:12:50;;;;;;;1.40;1.13;;;21.50;96.30;;;;;;5016578;28;20454;-39
2022/11/06 06:15:17;;;;;;;1.90;1.10;;;21.50;96.40;;;;;;5016870;28;20471;-39
2022/11/06 06:17:45;;;;;;;1.87;1.17;;;21.40;96.40;;;;;;5021093;28;20482;-40
2022/11/06 06:20:12;;;;;;;1.10;1.00;;;21.40;96.50;;;;;;5022609;28;20489;-40
2022/11/06 06:22:39;;;;;;;1.80;1.50;;;21.50;96.60;;;;;;5033235;28;20455;-39
2022/11/06 06:25:06;;;;;;;1.87;1.30;;;21.50;96.50;;;;;;5024127;28;20458;-40
2022/11/06 06:27:34;;;;;;;1.77;1.00;;;21.70;96.30;;;;;;5016663;28;20486;-40
2022/11/06 06:30:01;;;;;;;1.20;1.00;;;21.80;96.00;;;;;;5025874;28;20458;-40
2022/11/06 06:32:28;;;;;;;2.43;1.13;;;21.90;95.70;;;;;;5017424;28;20470;-41
2022/11/06 06:34:54;;;;;;;1.20;1.03;;;21.90;95.80;;;;;;5018309;28;20470;-39
2022/11/06 06:37:21;;;;;;;1.40;1.30;;;22.00;95.90;;;;;;5025880;28;20477;-39
2022/11/06 06:39:48;;;;;;;3.77;1.40;;;22.10;95.70;;;;;;5022365;28;20470;-40
2022/11/06 06:42:14;;;;;;;4.60;2.00;;;22.10;95.60;;;;;;5018834;28;20439;-39
2022/11/06 06:44:43;;;;;;;2.47;1.70;;;22.20;95.30;;;;;;5015336;28;20458;-39
2022/11/06 06:47:09;;;;;;;1.53;1.40;;;22.30;95.10;;;;;;5016665;28;20902;-39
2022/11/06 06:49:36;;;;;;;3.17;1.40;;;22.30;94.90;;;;;;5031706;28;20441;-40
2022/11/06 06:52:03;;;;;;;3.30;1.70;;;22.20;94.80;;;;;;5033615;28;20442;-39
2022/11/06 06:54:30;;;;;;;2.23;1.50;;;22.20;94.60;;;;;;5021242;28;20539;-39
2022/11/06 06:56:57;;;;;;;1.93;1.27;;;22.10;94.90;;;;;;5017382;28;20455;-39
2022/11/06 06:59:23;;;;;;;3.83;1.63;;;22.10;95.40;;;;;;5020333;28;20810;-39
2022/11/06 07:01:51;;;;;;;3.60;1.53;;;22.10;95.70;;;;;;5030774;28;20466;-40
2022/11/06 07:04:18;;;;;;;3.10;1.63;;;22.00;95.70;;;;;;5018683;28;20455;-39
2022/11/06 07:06:45;;;;;;;2.23;1.60;;;22.00;95.80;;;;;;5020571;28;20467;-39
2022/11/06 07:09:12;;;;;;;2.17;1.30;;;22.00;95.90;;;;;;5019190;28;20546;-39
2022/11/06 07:11:38;;;;;;;1.43;1.23;;;22.00;95.80;;;;;;5013373;28;20850;-40
2022/11/06 07:14:05;;;;;;;2.27;1.53;;;22.10;95.80;;;;;;5013445;28;20455;-39
2022/11/06 07:16:32;;;;;;;3.33;1.43;;;22.10;95.60;;;;;;5018818;28;20481;-39
2022/11/06 07:19:00;;;;;;;4.33;1.67;;;22.20;95.50;;;;;;5021903;28;20483;-40
2022/11/06 07:21:27;;;;;;;3.93;1.57;;;22.20;95.30;;;;;;5013541;28;20439;-41
2022/11/06 07:23:53;;;;;;;2.03;1.10;;;22.30;95.10;;;;;;5019620;28;20812;-41
2022/11/06 07:26:20;;;;;;;2.70;1.20;;;22.40;95.00;;;;;;5023178;28;20807;-39
2022/11/06 07:28:47;;;;;;;1.87;1.50;;;22.40;94.80;;;;;;5016809;28;20720;-39
2022/11/06 07:31:13;;;;;;;2.60;1.30;;;22.40;94.70;;;;;;5019688;28;20459;-37
2022/11/06 07:33:40;;;;;;;4.23;1.87;;;22.50;94.60;;;;;;5022753;28;20930;-40
2022/11/06 07:36:11;;;;;;;7.23;1.33;;;22.50;94.50;;;;;;5033134;28;20469;-38
2022/11/06 07:38:39;;;;;;;1.90;1.40;;;22.50;94.40;;;;;;5020825;28;20482;-37
2022/11/06 07:41:08;;;;;;;2.87;1.13;;;22.60;94.30;;;;;;5029269;28;20466;-37
2022/11/06 07:43:35;;;;;;;2.33;1.40;;;22.60;94.20;;;;;;5015289;28;20467;-37
2022/11/06 07:46:04;;;;;;;1.93;1.47;;;22.60;94.20;;;;;;5021193;28;20466;-40
2022/11/06 07:48:32;;;;;;;3.37;1.50;;;22.60;94.10;;;;;;5014681;28;20972;-37
2022/11/06 07:51:01;;;;;;;1.73;1.37;;;22.60;94.10;;;;;;5025255;28;20463;-40
2022/11/06 07:53:29;;;;;;;1.93;1.20;;;22.60;94.10;;;;;;5025019;28;20482;-40
2022/11/06 07:55:56;;;;;;;2.63;1.30;;;22.60;94.10;;;;;;5022625;28;20507;-38
2022/11/06 07:58:24;;;;;;;1.60;1.40;;;22.60;94.10;;;;;;5031604;28;20485;-39
2022/11/06 08:00:52;;;;;;;2.13;1.43;;;22.60;94.10;;;;;;5027164;28;20525;-40
2022/11/06 08:03:20;;;;;;;4.00;1.47;;;22.60;93.90;;;;;;5025093;28;20451;-40
2022/11/06 08:05:46;;;;;;;4.57;1.90;;;22.70;93.80;;;;;;5018227;28;20459;-40
2022/11/06 08:08:13;;;;;;;1.50;1.30;;;22.80;93.70;;;;;;5019484;28;20984;-40
2022/11/06 08:10:42;;;;;;;3.13;1.87;;;22.80;93.60;;;;;;5015297;28;20443;-40
2022/11/06 08:13:09;;;;;;;1.40;1.13;;;22.80;93.50;;;;;;5032220;28;20448;-39
2022/11/06 08:15:37;;;;;;;2.13;1.10;;;22.80;93.40;;;;;;5028614;28;20463;-40
2022/11/06 08:18:05;;;;;;;4.00;1.87;;;22.80;93.40;;;;;;5024370;28;20962;-40
2022/11/06 08:20:32;;;;;;;1.83;1.40;;;22.80;93.30;;;;;;5022087;28;20461;-41
2022/11/06 08:22:59;;;;;;;1.17;1.00;;;22.80;93.30;;;;;;5016110;28;20481;-38
2022/11/06 08:25:26;;;;;;;1.80;1.47;;;22.80;93.20;;;;;;5020506;28;20866;-38
2022/11/06 08:27:56;;;;;;;2.80;1.47;;;22.80;93.20;;;;;;5020922;28;20463;-37
2022/11/06 08:30:23;;;;;;;2.83;1.43;;;22.90;93.20;;;;;;5023643;28;20463;-37
2022/11/06 08:32:49;;;;;;;1.20;1.00;;;22.90;93.10;;;;;;5021103;28;20961;-37
2022/11/06 08:35:16;;;;;;;2.60;1.37;;;22.90;93.10;;;;;;5021863;28;20485;-40
2022/11/06 08:37:43;;;;;;;1.40;1.30;;;22.90;93.10;;;;;;5015137;28;20479;-39
2022/11/06 08:40:11;;;;;;;3.47;1.70;;;22.80;93.00;;;;;;5018308;28;20471;-39
2022/11/06 08:42:38;;;;;;;1.37;1.27;;;22.80;93.10;;;;;;5022206;28;20446;-39
2022/11/06 08:45:07;;;;;;;1.73;1.50;;;22.80;93.10;;;;;;5025748;28;20479;-40
2022/11/06 08:47:34;;;;;;;2.10;1.30;;;22.80;93.20;;;;;;5012701;28;20970;-39
2022/11/06 08:50:01;;;;;;;1.43;1.33;;;22.70;93.20;;;;;;5019397;28;20459;-40
2022/11/06 08:52:27;;;;;;;1.40;0.90;;;22.70;93.30;;;;;;5019162;28;20469;-39
2022/11/06 08:54:54;;;;;;;3.03;1.43;;;22.70;93.30;;;;;;5020972;28;20462;-39
2022/11/06 08:57:21;;;;;;;2.43;1.30;;;22.60;93.30;;;;;;5025740;28;20470;-40
2022/11/06 08:59:48;;;;;;;3.00;1.67;;;22.60;93.40;;;;;;5013599;28;20483;-38
2022/11/06 09:02:16;;;;;;;2.17;0.90;;;22.70;93.40;;;;;;5019052;28;20463;-38
2022/11/06 09:04:42;;;;;;;2.73;1.10;;;22.80;93.20;;;;;;5011854;28;20465;-38
2022/11/06 09:07:09;;;;;;;4.80;1.50;;;23.00;93.00;;;;;;5018396;28;20463;-39
2022/11/06 09:09:36;;;;;;;1.33;1.03;;;23.20;92.60;;;;;;5023101;28;20458;-39
2022/11/06 09:12:03;;;;;;;1.50;1.20;;;23.40;92.40;;;;;;5011616;28;20467;-38
2022/11/06 09:14:30;;;;;;;8.03;1.57;;;23.60;92.00;;;;;;5013660;28;20466;-38
2022/11/06 09:16:57;;;;;;;2.43;1.20;;;23.60;91.70;;;;;;5013256;28;20490;-37
2022/11/06 09:19:25;;;;;;;1.50;1.10;;;23.70;91.50;;;;;;5019449;28;20486;-38
2022/11/06 09:21:52;;;;;;;2.13;1.20;;;23.70;91.50;;;;;;5010500;28;20455;-38
2022/11/06 09:24:19;;;;;;;1.80;1.23;;;23.70;91.40;;;;;;5011604;28;20471;-40
2022/11/06 09:26:45;;;;;;;2.63;1.23;;;23.60;91.20;;;;;;5010707;28;20473;-38
2022/11/06 09:29:12;;;;;;;1.50;0.97;;;23.60;91.20;;;;;;5014551;28;20469;-39
2022/11/06 09:31:39;;;;;;;2.90;1.13;;;23.60;91.10;;;;;;5017470;28;20463;-38
2022/11/06 09:34:06;;;;;;;2.33;1.00;;;23.60;91.00;;;;;;5018330;28;20466;-39
2022/11/06 09:36:35;;;;;;;1.93;1.40;;;23.60;91.00;;;;;;5010238;28;20442;-39
2022/11/06 09:39:02;;;;;;;1.50;1.00;;;23.60;91.00;;;;;;5011299;28;20471;-38
2022/11/06 09:41:41;;;;;;;1.77;1.00;;;23.60;91.00;;;;;;5018983;28;20512;-39
2022/11/06 09:44:25;;;;;;;1.90;1.10;;;23.50;90.90;;;;;;5020042;28;20982;-38
2022/11/06 09:46:55;;;;;;;1.87;1.30;;;23.50;90.90;;;;;;5013250;28;20465;-39
2022/11/06 09:49:26;;;;;;;1.83;1.50;;;23.40;90.90;;;;;;5015349;28;20996;-39
2022/11/06 09:52:00;;;;;;;2.83;1.07;;;23.40;91.00;;;;;;5011406;28;20454;-38
2022/11/06 09:54:31;;;;;;;2.03;1.00;;;23.40;91.00;;;;;;5022146;28;20454;-38
2022/11/06 09:57:04;;;;;;;3.23;1.30;;;23.30;91.00;;;;;;5016542;28;20490;-39
2022/11/06 09:59:35;;;;;;;1.70;1.23;;;23.30;91.00;;;;;;5014761;28;20487;-38
2022/11/06 10:02:02;;;;;;;1.73;1.20;;;23.30;91.00;;;;;;5010960;28;20455;-38
2022/11/06 10:04:38;;;;;;;1.10;1.00;;;23.30;91.00;;;;;;5017070;28;20462;-38
2022/11/06 10:07:16;;;;;;;1.70;1.40;;;23.30;91.00;;;;;;5023009;28;20461;-38
2022/11/06 10:09:43;;;;;;;1.50;1.03;;;23.30;91.10;;;;;;5014204;28;20977;-38
2022/11/06 10:12:16;;;;;;;1.80;1.40;;;23.30;91.00;;;;;;5010590;28;20863;-38
2022/11/06 10:14:56;;;;;;;2.10;1.10;;;23.30;91.00;;;;;;5012102;28;20458;-38
2022/11/06 10:17:38;;;;;;;3.23;1.23;;;23.30;90.90;;;;;;5012192;28;20478;-37
2022/11/06 10:20:14;;;;;;;1.50;1.30;;;23.30;90.90;;;;;;5019956;28;20485;-38
2022/11/06 10:22:53;;;;;;;1.63;1.10;;;23.30;90.80;;;;;;5027593;28;20454;-38
2022/11/06 10:25:21;;;;;;;3.93;1.40;;;23.40;90.80;;;;;;5009954;28;20473;-38
2022/11/06 10:28:01;;;;;;;1.60;1.37;;;23.40;90.50;;;;;;5019813;28;20949;-37
2022/11/06 10:30:35;;;;;;;2.07;1.87;;;23.40;90.40;;;;;;5010822;28;20994;-40
2022/11/06 10:33:23;;;;;;;4.70;1.30;;;23.40;90.40;;;;;;5021057;28;20453;-38
2022/11/06 10:35:54;;;;;;;2.13;1.20;;;23.50;90.40;;;;;;5022344;28;20454;-37
2022/11/06 10:38:26;;;;;;;1.63;1.10;;;23.40;90.30;;;;;;5025902;28;20478;-38
2022/11/06 10:40:54;;;;;;;3.00;1.20;;;23.40;90.30;;;;;;5025206;28;20536;-39
2022/11/06 10:43:29;;;;;;;4.03;1.80;;;23.40;90.50;;;;;;5015785;28;20461;-39
2022/11/06 10:46:10;;;;;;;3.67;1.43;;;23.40;88.90;;;;;;5014696;28;20454;-38
2022/11/06 10:48:40;;;;;;;9.17;1.43;;;23.30;88.30;;;;;;5021378;28;20454;-39
2022/11/06 10:51:22;;;;;;;2.67;1.30;;;23.20;88.60;;;;;;5022403;28;20443;-39
2022/11/06 10:54:02;;;;;;;3.77;1.70;;;23.20;89.30;;;;;;5023243;28;20954;-39
2022/11/06 10:56:49;;;;;;;5.93;1.80;;;23.20;90.00;;;;;;5013675;28;21013;-40
2022/11/06 10:59:17;;;;;;;3.37;1.50;;;23.20;90.40;;;;;;5020403;28;20483;-37
2022/11/06 11:01:43;;;;;;;6.13;2.27;;;23.30;90.50;;;;;;5022792;28;20457;-39
2022/11/06 11:04:10;;;;;;;3.33;1.50;;;23.30;90.80;;;;;;5024305;28;20475;-40
2022/11/06 11:06:39;;;;;;;4.60;1.87;;;23.30;91.00;;;;;;5015753;28;20455;-40
2022/11/06 11:09:27;;;;;;;3.23;1.60;;;23.50;91.20;;;;;;5029041;28;20497;-42
2022/11/06 11:11:54;;;;;;;1.77;1.20;;;23.60;91.20;;;;;;4955893;28;20474;-44
2022/11/06 11:14:24;;;;;;;4.33;1.63;;;23.50;91.40;;;;;;5035448;28;20462;-41
2022/11/06 11:16:50;;;;;;;4.73;1.17;;;23.50;91.60;;;;;;5039613;28;20474;-41
2022/11/06 11:19:34;;;;;;;2.60;1.90;;;23.60;91.70;;;;;;5041008;28;20504;-44
2022/11/06 11:22:03;;;;;;;2.47;1.53;;;23.60;92.00;;;;;;5037814;28;20454;-42
2022/11/06 11:24:31;;;;;;;2.50;1.53;;;23.60;91.90;;;;;;5034629;28;20458;-42
2022/11/06 11:27:01;;;;;;;3.47;1.70;;;23.60;91.90;;;;;;5046557;28;20454;-42
2022/11/06 11:29:30;;;;;;;2.53;1.23;;;23.60;92.00;;;;;;5039852;28;20469;-42
2022/11/06 11:32:00;;;;;;;2.70;1.37;;;23.60;92.10;;;;;;5035177;28;21260;-42
2022/11/06 11:34:30;;;;;;;4.50;1.90;;;23.60;92.10;;;;;;5037551;28;20465;-42
2022/11/06 11:36:59;;;;;;;1.53;1.10;;;23.60;92.10;;;;;;5047560;28;20857;-43
2022/11/06 11:39:30;;;;;;;1.57;1.30;;;23.60;92.20;;;;;;5039367;28;20580;-42
2022/11/06 11:42:26;;;;;;;2.90;1.70;;;23.60;91.90;;;;;;5043414;28;20454;-42
2022/11/06 11:45:12;;;;;;;2.20;1.20;;;23.60;91.80;;;;;;5043708;28;20458;-42
2022/11/06 11:47:41;;;;;;;2.90;1.30;;;23.60;91.90;;;;;;5032391;28;20985;-42
2022/11/06 11:50:18;;;;;;;2.20;1.20;;;23.60;92.00;;;;;;5037282;28;20809;-44
2022/11/06 11:52:46;;;;;;;2.07;1.37;;;23.60;92.00;;;;;;5039349;28;20476;-42
2022/11/06 11:55:16;;;;;;;5.13;1.60;;;23.60;92.20;;;;;;5029688;28;20457;-42
2022/11/06 11:57:51;;;;;;;3.23;1.77;;;23.50;92.10;;;;;;5039240;28;20473;-43
2022/11/06 12:00:21;;;;;;;2.20;1.47;;;23.50;92.30;;;;;;5033449;28;20481;-43
2022/11/06 12:02:59;;;;;;;1.40;1.00;;;23.50;92.20;;;;;;5035261;28;20980;-40
2022/11/06 12:05:33;;;;;;;2.13;1.20;;;23.40;92.40;;;;;;5036195;28;20477;-42
2022/11/06 12:08:00;;;;;;;4.00;1.10;;;23.40;92.70;;;;;;5031088;28;20462;-41
2022/11/06 12:10:29;;;;;;;3.47;1.80;;;23.40;92.70;;;;;;5032113;28;20466;-42
2022/11/06 12:12:59;;;;;;;3.10;1.50;;;23.40;92.70;;;;;;5042787;28;20462;-42
2022/11/06 12:15:28;;;;;;;1.60;1.10;;;23.40;92.90;;;;;;5040746;28;20461;-45
2022/11/06 12:17:58;;;;;;;2.60;1.20;;;23.40;93.00;;;;;;5041356;28;20881;-42
2022/11/06 12:20:31;;;;;;;1.83;1.40;;;23.40;92.80;;;;;;5035867;28;20482;-43
2022/11/06 12:22:59;;;;;;;1.50;1.40;;;23.30;93.10;;;;;;5033028;28;20796;-43
2022/11/06 12:25:31;;;;;;;4.30;1.27;;;23.30;93.20;;;;;;5034156;28;20458;-41
2022/11/06 12:28:02;;;;;;;3.20;1.47;;;23.30;93.20;;;;;;5041880;28;20455;-45
2022/11/06 12:30:32;;;;;;;2.77;1.50;;;23.30;93.30;;;;;;5036320;28;20461;-44
2022/11/06 12:33:04;;;;;;;2.27;1.20;;;23.30;93.20;;;;;;5035976;28;20443;-43
2022/11/06 12:35:32;;;;;;;2.07;1.63;;;23.30;93.30;;;;;;5032692;28;20516;-41
2022/11/06 12:38:10;;;;;;;1.70;1.13;;;23.30;93.70;;;;;;5032304;28;20481;-40
2022/11/06 12:40:39;;;;;;;2.83;1.37;;;23.30;93.70;;;;;;5040490;28;20573;-42
2022/11/06 12:43:17;;;;;;;2.67;1.20;;;23.40;94.20;;;;;;5035917;28;20450;-40
2022/11/06 12:46:23;;;;;;;3.40;1.67;;;23.40;93.80;;;;;;5031624;28;20457;-40
2022/11/06 12:49:22;;;;;;;1.80;1.50;;;23.50;93.60;;;;;;4983484;28;20463;-42
2022/11/06 12:52:03;;;;;;;2.03;1.33;;;23.50;93.00;;;;;;5039751;28;20445;-40
2022/11/06 12:54:53;;;;;;;2.03;1.73;;;23.60;92.50;;;;;;5035450;28;20829;-33
2022/11/06 12:57:32;;;;;;;5.03;1.88;;;20.70;68.10;;;;;;5030790;28;20466;-33
2022/11/06 13:00:08;;;;;;;4.68;2.90;;;19.80;69.90;;;;;;5041952;28;20215;-35
2022/11/06 13:02:56;;;;;;;3.15;1.70;;;19.30;69.80;;;;;;5032657;28;20659;-35
2022/11/06 13:05:30;;;;;;;3.95;1.85;;;18.90;74.50;;;;;;5035909;28;20203;-36
2022/11/06 13:08:12;;;;;;;3.92;1.70;;;19.20;68.30;;;;;;5031367;28;20188;-34
2022/11/06 13:10:48;;;;;;;4.00;1.63;;;19.10;69.40;;;;;;5039318;28;20219;-35
2022/11/06 13:13:36;;;;;;;6.80;2.40;;;18.90;68.30;;;;;;5042515;28;20202;-36
2022/11/06 13:16:14;;;;;;;5.72;2.38;;;18.70;70.90;;;;;;5036055;28;20188;-42
2022/11/06 13:18:45;;;;;;;2.72;1.90;;;20.40;79.70;;;;;;5038279;28;20539;-43